No requiere especial atencion con respecto al clima.   -   No hay Alarmas

Nearby METAR Reports

 

LELL - Sabadell, Spain
Distance from station: E 19km
Actualización: 20/09/2021 19:00
Nearby thunderstorm, Muy nuboso
Nearby thunderstorm, Muy nuboso
 Viento del SE
Viento: SE 20 km/h
Temperatura: 21°C
Rocío: 16°C
Humedad: 73%
Barómetro: 1018 hPa
Resumen: Nearby Thunderstorm
Clouds: Muy nuboso
Visibility: 10 km
Cloud details: Parcialmente nuboso 762 m
Muy nuboso 1372 m
2021/09/20 17:00 LELL 201700Z 13011KT 090V170 9999 VCTS SCT025CB BKN045 21/16 Q1018
LEBL - Barcelona Airpor, Spain
Distance from station: SSE 30km
Actualización: 20/09/2021 19:00
Thunderstorm, Lluvia intensa, Showers, Muy nuboso
Thunderstorm, Lluvia intensa, Showers, Muy nuboso
 Viento del ENE
Viento: ENE 24 km/h
Temperatura: 18°C
Rocío: 15°C
Humedad: 83%
Barómetro: 1018 hPa
Resumen: Thunderstorm, Lluvia intensa, Showers
Clouds: Muy nuboso
Visibility: 2 km
Cloud details: Muy nuboso 762 m
Few Clouds 914 m
Muy nuboso 1067 m
2021/09/20 17:00 LEBL 201700Z 07013KT 050V110 2000 R25R/0700D TS +SHRA BKN025 FEW030CB BKN035 18/15 Q1018 NOSIG
 
LERS - Reus (civ/Mil), Spain
Distance from station: SO 71km
Actualización: 20/09/2021 19:00
Few Clouds
Few Clouds
 Viento del O
Viento: O 28 km/h
Temperatura: 25°C
Rocío: 7°C
Humedad: 32%
Barómetro: 1017 hPa
Clouds: Few Clouds
Visibility: 10 km
Cloud details: Few Clouds 1524 m
2021/09/20 17:00 LERS 201700Z 27015KT 9999 FEW050 25/07 Q1017
LEGE - Gerona/Costa Bra, Spain
Distance from station: ENE 86km
Actualización: 20/09/2021 19:00
Drizzle, Muy nuboso
Drizzle, Muy nuboso
 Viento del NO
Viento: NO 6 km/h
Temperatura: 16°C
Rocío: 15°C
Humedad: 94%
Barómetro: 1019 hPa
Resumen: Drizzle
Clouds: Muy nuboso
Visibility: 8 km
Cloud details: Parcialmente nuboso 762 m
Muy nuboso 1524 m
2021/09/20 17:00 LEGE 201700Z 31003KT 270V350 8000 DZ SCT025 BKN050 16/15 Q1019
 
LESU - Pirineus/La Seu, Spain
Distance from station: NNO 101km
Actualización: 20/09/2021 18:00
NOT Current
Lluvia débil, Parcialmente nuboso
Lluvia débil, Parcialmente nuboso
 Viento del SSO
Viento: SSO 26 km/h
Temperatura: 15°C
Rocío: 9°C
Humedad: 68%
Barómetro: 1019 hPa
Resumen: Lluvia débil
Clouds: Parcialmente nuboso
Visibility: 10 km
Cloud details: Few Clouds 1219 m
Parcialmente nuboso 1890 m
2021/09/20 16:00 LESU 201600Z 21014KT 9999 -RA FEW040CB SCT062 15/09 Q1019
LEDA - Lleida/Alguaire, Spain
Distance from station: ONO 114km
Actualización: 20/09/2021 19:00
Few Clouds
Few Clouds
 Viento del OSO
Viento: OSO 33 km/h
Temperatura: 22°C
Rocío: 5°C
Humedad: 33%
Barómetro: 1018 hPa
Clouds: Few Clouds
Visibility: 10 km
Cloud details: Few Clouds 914 m
2021/09/20 17:00 LEDA 201700Z 25018KT 9999 FEW030 22/05 Q1018